Time;durP1;ratioP1;P1;durP2;ratioP2;P2;SDS_P1;SDS_P2;PMS_P1;PMS_P2;Temp;Humidity;BMP_temperature;BMP_pressure;BME280_temperature;BME280_humidity;BME280_pressure;Samples;Min_cycle;Max_cycle;Signal;HPM_P1;HPM_P2
2021/05/27 00:02:11;;;;;;;7.57;4.25;;;333.20;2329.60;;;;;;5065608;28;20049;-69
2021/05/27 00:04:37;;;;;;;6.40;4.18;;;333.20;2329.60;;;;;;5063947;28;20032;-69
2021/05/27 00:07:03;;;;;;;9.02;4.80;;;333.40;2329.60;;;;;;5059946;28;20071;-69
2021/05/27 00:09:29;;;;;;;6.00;4.18;;;333.20;2329.60;;;;;;5064816;28;20087;-69
2021/05/27 00:11:55;;;;;;;7.40;4.47;;;333.20;2329.60;;;;;;5055492;28;20475;-70
2021/05/27 00:14:21;;;;;;;7.68;5.32;;;333.20;2329.60;;;;;;5062597;28;20103;-70
2021/05/27 00:16:47;;;;;;;12.80;6.30;;;333.20;2329.60;;;;;;5062199;28;20519;-69
2021/05/27 00:19:13;;;;;;;10.52;6.68;;;333.30;2329.60;;;;;;5060568;28;20100;-69
2021/05/27 00:21:38;;;;;;;10.63;6.57;;;333.30;2329.60;;;;;;5064105;28;20025;-69
2021/05/27 00:24:05;;;;;;;10.23;6.78;;;333.30;2329.60;;;;;;5059427;28;20445;-70
2021/05/27 00:26:31;;;;;;;8.82;5.20;;;333.30;2329.60;;;;;;5063154;28;20032;-68
2021/05/27 00:28:56;;;;;;;10.73;4.60;;;333.30;2329.60;;;;;;5053622;28;20086;-70
2021/05/27 00:31:22;;;;;;;8.75;4.60;;;333.20;2329.60;;;;;;5053511;28;20025;-69
2021/05/27 00:33:48;;;;;;;9.45;4.35;;;333.20;2329.60;;;;;;5052143;28;20124;-69
2021/05/27 00:36:14;;;;;;;5.75;3.78;;;333.20;2329.60;;;;;;5053475;28;20029;-72
2021/05/27 00:38:40;;;;;;;5.80;3.70;;;333.20;2329.60;;;;;;5053127;28;20020;-69
2021/05/27 00:41:06;;;;;;;4.75;3.30;;;333.10;2329.60;;;;;;5053337;28;20483;-70
2021/05/27 00:43:31;;;;;;;7.03;3.67;;;332.90;2329.60;;;;;;5053028;28;20035;-69
2021/05/27 00:45:57;;;;;;;7.20;4.03;;;308.10;2304.00;;;;;;5060366;28;20036;-69
2021/05/27 00:51:07;;;;;;;8.57;4.57;;;307.90;2304.00;;;;;;5053054;28;20023;-69
2021/05/27 00:53:33;;;;;;;9.15;4.40;;;307.80;2304.00;;;;;;5052785;28;20387;-69
2021/05/27 00:55:59;;;;;;;7.30;4.60;;;307.60;2304.00;;;;;;5055211;28;20479;-70
2021/05/27 00:58:26;;;;;;;8.75;4.50;;;307.40;2304.00;;;;;;5055153;28;20069;-69
2021/05/27 01:00:51;;;;;;;10.50;5.20;;;307.30;2304.00;;;;;;5056502;28;20394;-69
2021/05/27 01:03:18;;;;;;;9.38;5.13;;;307.30;2304.00;;;;;;5052649;28;20092;-69
2021/05/27 01:05:44;;;;;;;7.10;4.90;;;307.40;2304.00;;;;;;5051785;28;20020;-69
2021/05/27 01:08:10;;;;;;;7.63;4.65;;;307.50;2304.00;;;;;;5054841;28;20028;-69
2021/05/27 01:10:36;;;;;;;10.07;5.10;;;307.60;2304.00;;;;;;5054006;28;20035;-69
2021/05/27 01:13:02;;;;;;;8.57;4.97;;;307.60;2304.00;;;;;;5053534;28;20434;-69
2021/05/27 01:15:29;;;;;;;8.77;4.75;;;307.70;2304.00;;;;;;5057578;28;20463;-69
2021/05/27 01:18:14;;;;;;;8.82;4.78;;;307.70;2304.00;;;;;;5059335;28;20135;-69
2021/05/27 01:20:42;;;;;;;10.52;4.75;;;307.80;2304.00;;;;;;5060404;28;20043;-69
2021/05/27 01:23:09;;;;;;;8.35;4.72;;;307.80;2304.00;;;;;;5052660;28;20024;-69
2021/05/27 01:25:37;;;;;;;10.73;5.00;;;307.80;2304.00;;;;;;5052722;28;20033;-69
2021/05/27 01:28:03;;;;;;;9.75;5.07;;;307.80;2304.00;;;;;;5052555;28;20037;-69
2021/05/27 01:30:30;;;;;;;9.27;5.18;;;307.80;2304.00;;;;;;5052610;28;20017;-70
2021/05/27 01:32:55;;;;;;;10.13;5.20;;;307.80;2304.00;;;;;;5052523;28;20102;-69
2021/05/27 01:35:24;;;;;;;8.98;5.15;;;307.80;2304.00;;;;;;5052481;28;20025;-69
2021/05/27 01:37:50;;;;;;;9.52;4.88;;;307.90;2304.00;;;;;;5052091;28;20032;-69
2021/05/27 01:40:21;;;;;;;9.35;4.90;;;307.90;2304.00;;;;;;5052656;28;20028;-69
2021/05/27 01:42:47;;;;;;;10.02;4.72;;;308.00;2304.00;;;;;;5052196;28;20051;-69
2021/05/27 01:45:13;;;;;;;7.28;4.55;;;308.00;2304.00;;;;;;5052675;28;20098;-69
2021/05/27 01:47:40;;;;;;;9.18;4.70;;;308.10;2304.00;;;;;;5052322;28;20502;-69
2021/05/27 01:50:10;;;;;;;8.80;4.82;;;308.10;2304.00;;;;;;5052253;28;20077;-69
2021/05/27 01:52:36;;;;;;;9.38;5.00;;;308.10;2304.00;;;;;;5052173;28;20028;-73
2021/05/27 01:55:04;;;;;;;9.32;4.80;;;308.10;2304.00;;;;;;5058208;28;20021;-73
2021/05/27 01:57:30;;;;;;;11.32;5.75;;;308.10;2304.00;;;;;;5058715;28;20479;-69
2021/05/27 01:59:55;;;;;;;7.88;5.43;;;308.10;2304.00;;;;;;5058717;28;20031;-69
2021/05/27 02:02:21;;;;;;;9.50;5.97;;;308.10;2304.00;;;;;;5058746;28;20304;-69
2021/05/27 02:04:47;;;;;;;8.45;5.70;;;332.80;2329.60;;;;;;5058531;28;20052;-69
2021/05/27 02:07:14;;;;;;;7.78;5.55;;;332.90;2329.60;;;;;;5058772;28;20021;-69
2021/05/27 02:09:41;;;;;;;9.15;5.15;;;333.00;2329.60;;;;;;5058538;28;20104;-69
2021/05/27 02:12:07;;;;;;;9.20;5.03;;;333.10;2329.60;;;;;;5058530;28;20401;-69
2021/05/27 02:14:34;;;;;;;10.27;5.07;;;333.10;2329.60;;;;;;5058839;28;20071;-69
2021/05/27 02:17:00;;;;;;;8.07;4.95;;;333.10;2329.60;;;;;;5058747;28;20463;-70
2021/05/27 02:19:26;;;;;;;7.20;4.30;;;333.20;2329.60;;;;;;5058885;28;20063;-70
2021/05/27 02:21:52;;;;;;;6.70;4.18;;;333.20;2329.60;;;;;;5058470;28;20028;-69
2021/05/27 02:24:17;;;;;;;8.85;4.78;;;333.20;2329.60;;;;;;5058625;28;20012;-70
2021/05/27 02:26:44;;;;;;;9.23;5.30;;;333.20;2329.60;;;;;;5058694;28;20035;-70
2021/05/27 02:29:10;;;;;;;10.23;5.60;;;333.10;2329.60;;;;;;5058785;28;20029;-69
2021/05/27 02:31:36;;;;;;;10.60;5.50;;;333.20;2329.60;;;;;;5058493;28;20032;-69
2021/05/27 02:34:03;;;;;;;11.00;5.78;;;333.10;2329.60;;;;;;5058394;28;20048;-73
2021/05/27 02:36:30;;;;;;;7.47;4.97;;;333.10;2329.60;;;;;;5040624;28;20028;-72
2021/05/27 02:38:56;;;;;;;8.13;5.00;;;332.90;2329.60;;;;;;5058368;28;20082;-70
2021/05/27 02:41:22;;;;;;;10.05;4.25;;;332.80;2329.60;;;;;;5058594;28;20095;-70
2021/05/27 02:43:48;;;;;;;8.27;4.40;;;308.10;2304.00;;;;;;5058576;28;20025;-69
2021/05/27 02:46:14;;;;;;;7.32;4.20;;;308.00;2304.00;;;;;;5065163;28;20073;-70
2021/05/27 02:48:40;;;;;;;7.47;4.47;;;307.80;2304.00;;;;;;5069070;28;20033;-72
2021/05/27 02:51:05;;;;;;;7.65;4.22;;;307.70;2304.00;;;;;;5072042;28;20013;-69
2021/05/27 02:53:31;;;;;;;6.57;4.30;;;307.70;2304.00;;;;;;5070941;28;20029;-72
2021/05/27 02:55:57;;;;;;;6.30;4.30;;;307.60;2304.00;;;;;;5069095;28;20031;-69
2021/05/27 02:58:23;;;;;;;7.63;4.55;;;307.60;2304.00;;;;;;5071984;28;20028;-68
2021/05/27 03:00:49;;;;;;;7.22;4.40;;;307.50;2304.00;;;;;;5067431;28;20028;-72
2021/05/27 03:03:16;;;;;;;7.03;4.50;;;307.50;2304.00;;;;;;5072517;28;20031;-69
2021/05/27 03:05:45;;;;;;;8.32;4.47;;;307.50;2304.00;;;;;;5048343;28;20379;-75
2021/05/27 03:08:10;;;;;;;7.60;4.88;;;307.50;2304.00;;;;;;5070747;28;20063;-73
2021/05/27 03:10:36;;;;;;;9.25;5.00;;;307.50;2304.00;;;;;;5070012;28;20048;-69
2021/05/27 03:13:02;;;;;;;9.93;5.32;;;307.50;2304.00;;;;;;5059037;28;20451;-69
2021/05/27 03:15:28;;;;;;;14.95;7.40;;;307.60;2304.00;;;;;;5060124;28;20048;-75
2021/05/27 03:17:54;;;;;;;19.52;8.18;;;307.50;2304.00;;;;;;5067287;28;20487;-76
2021/05/27 03:20:20;;;;;;;18.75;9.90;;;307.60;2304.00;;;;;;5070956;28;20028;-69
2021/05/27 03:22:46;;;;;;;17.00;9.13;;;307.60;2304.00;;;;;;5073134;28;20024;-68
2021/05/27 03:25:12;;;;;;;34.97;15.15;;;307.60;2304.00;;;;;;5071654;28;20107;-69
2021/05/27 03:27:37;;;;;;;77.40;29.88;;;307.60;2304.00;;;;;;5073072;28;20024;-69
2021/05/27 03:30:04;;;;;;;68.05;26.13;;;307.60;2304.00;;;;;;5071820;28;20035;-69
2021/05/27 03:32:30;;;;;;;50.55;21.25;;;307.60;2304.00;;;;;;5073134;28;20028;-71
2021/05/27 03:34:56;;;;;;;34.08;14.10;;;307.70;2304.00;;;;;;5073105;28;20510;-71
2021/05/27 03:37:22;;;;;;;26.17;11.93;;;307.70;2304.00;;;;;;5071661;28;20127;-69
2021/05/27 03:42:31;;;;;;;13.80;7.57;;;307.80;2304.00;;;;;;5071301;28;20027;-69
2021/05/27 03:44:57;;;;;;;12.38;6.15;;;308.00;2304.00;;;;;;5073193;28;20036;-68
2021/05/27 03:47:23;;;;;;;10.63;5.50;;;308.00;2304.00;;;;;;5071223;28;20467;-72
2021/05/27 03:49:49;;;;;;;7.97;5.20;;;308.10;2304.00;;;;;;5072934;28;20025;-69
2021/05/27 03:52:14;;;;;;;9.93;5.75;;;308.10;2304.00;;;;;;5067576;28;20387;-69
2021/05/27 03:54:40;;;;;;;8.82;5.50;;;332.80;2329.60;;;;;;5072798;28;20099;-69
2021/05/27 03:57:06;;;;;;;10.02;6.00;;;332.80;2329.60;;;;;;5072752;28;20495;-73
2021/05/27 04:02:15;;;;;;;10.52;5.68;;;332.80;2329.60;;;;;;5072459;28;20031;-72
2021/05/27 04:07:26;;;;;;;8.77;5.72;;;333.10;2329.60;;;;;;5071616;28;20028;-71
2021/05/27 04:09:52;;;;;;;11.05;6.22;;;333.30;2329.60;;;;;;5072034;28;20029;-69
2021/05/27 04:15:26;;;;;;;9.60;5.10;;;333.50;2329.60;;;;;;5054023;28;20075;-71
2021/05/27 04:17:54;;;;;;;9.02;4.93;;;333.60;2329.60;;;;;;5053436;28;20556;-70
2021/05/27 04:20:20;;;;;;;8.95;5.55;;;333.70;2329.60;;;;;;5053664;28;20472;-68
2021/05/27 04:22:49;;;;;;;9.13;4.82;;;358.40;2329.60;;;;;;5053560;28;20111;-70
2021/05/27 04:25:16;;;;;;;8.23;4.90;;;358.50;2329.60;;;;;;5053817;28;20029;-70
2021/05/27 04:27:43;;;;;;;9.63;4.97;;;358.50;2329.60;;;;;;5053888;28;20326;-70
2021/05/27 04:30:17;;;;;;;8.13;5.20;;;358.60;2329.60;;;;;;5053579;28;20016;-70
2021/05/27 04:32:54;;;;;;;9.65;5.95;;;358.60;2329.60;;;;;;5053736;28;20082;-71
2021/05/27 04:35:25;;;;;;;11.35;5.50;;;358.70;2329.60;;;;;;5053232;28;20037;-70
2021/05/27 04:37:51;;;;;;;11.25;5.90;;;358.80;2329.60;;;;;;5053725;28;20028;-70
2021/05/27 04:40:18;;;;;;;12.30;6.93;;;358.70;2329.60;;;;;;5053468;28;20090;-73
2021/05/27 04:42:44;;;;;;;18.13;7.57;;;358.70;2329.60;;;;;;5053472;28;20102;-71
2021/05/27 04:45:11;;;;;;;17.13;7.90;;;358.80;2329.60;;;;;;5053407;28;20024;-73
2021/05/27 04:47:37;;;;;;;17.38;8.02;;;358.80;2329.60;;;;;;5053217;28;20025;-70
2021/05/27 04:50:05;;;;;;;15.85;7.82;;;358.80;2329.60;;;;;;5053030;28;20388;-70
2021/05/27 04:52:31;;;;;;;15.43;6.90;;;358.80;2329.60;;;;;;5053243;28;20036;-74
2021/05/27 04:54:56;;;;;;;14.13;7.07;;;358.90;2329.60;;;;;;5053303;28;20360;-72
2021/05/27 04:57:22;;;;;;;13.93;6.25;;;359.00;2329.60;;;;;;5052919;28;20028;-68
2021/05/27 04:59:48;;;;;;;11.48;6.15;;;359.00;2329.60;;;;;;5053251;28;20029;-69
2021/05/27 05:02:13;;;;;;;9.10;5.55;;;359.10;2329.60;;;;;;5061760;28;20030;-69
2021/05/27 05:04:39;;;;;;;11.75;5.93;;;359.20;2329.60;;;;;;5066240;28;20032;-73
2021/05/27 05:07:05;;;;;;;10.60;5.43;;;359.30;2329.60;;;;;;5066414;28;20593;-72
2021/05/27 05:09:30;;;;;;;12.18;5.53;;;384.00;2329.60;;;;;;5064200;28;20498;-69
2021/05/27 05:11:56;;;;;;;9.85;5.30;;;384.00;2329.60;;;;;;5059159;28;20021;-69
2021/05/27 05:14:22;;;;;;;11.75;5.70;;;384.10;2329.60;;;;;;5052611;28;20013;-68
2021/05/27 05:16:47;;;;;;;10.38;5.45;;;384.30;2329.60;;;;;;5052345;28;20029;-70
2021/05/27 05:19:13;;;;;;;9.93;5.75;;;384.40;2329.60;;;;;;5053375;28;20423;-70
2021/05/27 05:21:39;;;;;;;8.93;5.43;;;384.50;2329.60;;;;;;5059038;28;20498;-70
2021/05/27 05:24:05;;;;;;;8.15;5.10;;;384.60;2329.60;;;;;;5057004;28;20033;-71
2021/05/27 05:26:31;;;;;;;9.70;5.05;;;384.70;2329.60;;;;;;5054995;28;20082;-70
2021/05/27 05:28:56;;;;;;;7.68;4.80;;;384.90;2329.60;;;;;;5053200;28;20021;-73
2021/05/27 05:31:22;;;;;;;8.63;4.63;;;409.80;2355.20;;;;;;5037020;28;20056;-71
2021/05/27 05:33:48;;;;;;;8.50;5.25;;;410.30;2355.20;;;;;;5039694;28;20496;-72
2021/05/27 05:36:14;;;;;;;9.43;4.80;;;410.30;2355.20;;;;;;5035109;28;20495;-69
2021/05/27 05:38:40;;;;;;;8.10;4.90;;;410.50;2355.20;;;;;;5035753;28;20037;-68
2021/05/27 05:41:06;;;;;;;13.43;5.07;;;435.50;2355.20;;;;;;5033957;28;20018;-70
2021/05/27 05:43:32;;;;;;;9.50;4.97;;;435.70;2355.20;;;;;;5032776;28;20025;-70
2021/05/27 05:45:57;;;;;;;9.45;5.20;;;435.80;2355.20;;;;;;5037757;28;20386;-74
2021/05/27 05:48:23;;;;;;;9.43;5.28;;;435.80;2355.20;;;;;;5036430;28;20026;-69
2021/05/27 05:50:49;;;;;;;8.23;5.20;;;435.80;2355.20;;;;;;5039659;28;20030;-69
2021/05/27 05:53:23;;;;;;;10.20;5.15;;;435.80;2355.20;;;;;;5035892;28;20037;-68
2021/05/27 05:55:51;;;;;;;9.52;4.93;;;435.90;2355.20;;;;;;5054198;28;20017;-68
2021/05/27 05:58:17;;;;;;;8.25;5.05;;;435.90;2355.20;;;;;;5058325;28;20017;-68
2021/05/27 06:00:44;;;;;;;7.45;5.13;;;436.10;2355.20;;;;;;5056717;28;20083;-69
2021/05/27 06:03:10;;;;;;;9.38;5.82;;;460.80;2380.80;;;;;;5049245;28;20484;-68
2021/05/27 06:05:36;;;;;;;10.68;6.03;;;436.10;2355.20;;;;;;5035653;28;20041;-69
2021/05/27 06:08:02;;;;;;;12.52;6.30;;;436.10;2355.20;;;;;;5043532;28;20027;-68
2021/05/27 06:10:28;;;;;;;8.20;5.75;;;460.80;2380.80;;;;;;5061447;28;20017;-69
2021/05/27 06:12:56;;;;;;;9.55;5.53;;;460.80;2380.80;;;;;;5038445;28;20034;-71
2021/05/27 06:15:23;;;;;;;13.52;6.50;;;460.80;2380.80;;;;;;5048700;28;20021;-69
2021/05/27 06:17:51;;;;;;;11.57;6.53;;;436.10;2355.20;;;;;;5052017;28;20025;-72
2021/05/27 06:20:20;;;;;;;12.57;6.47;;;460.90;2380.80;;;;;;5056653;28;20032;-68
2021/05/27 06:22:46;;;;;;;13.77;6.65;;;461.00;2380.80;;;;;;5039426;28;20037;-73
2021/05/27 06:25:12;;;;;;;11.07;6.68;;;461.10;2380.80;;;;;;5037300;28;20515;-73
2021/05/27 06:27:38;;;;;;;10.40;6.80;;;461.20;2380.80;;;;;;5045077;28;20079;-72
2021/05/27 06:30:05;;;;;;;9.93;6.38;;;461.30;2380.80;;;;;;5044347;28;20025;-69
2021/05/27 06:32:34;;;;;;;12.73;6.40;;;461.20;2380.80;;;;;;5048196;28;20090;-70
2021/05/27 06:35:00;;;;;;;10.60;6.20;;;461.20;2380.80;;;;;;5057884;28;20099;-75
2021/05/27 06:37:26;;;;;;;12.60;6.20;;;461.20;2380.80;;;;;;5055340;28;20025;-68
2021/05/27 06:39:52;;;;;;;9.80;5.60;;;460.90;2380.80;;;;;;5049019;28;20542;-68
2021/05/27 06:42:19;;;;;;;10.75;5.93;;;461.10;2380.80;;;;;;5054775;28;20033;-73
2021/05/27 06:44:44;;;;;;;10.63;5.78;;;461.40;2380.80;;;;;;5056590;28;20027;-74
2021/05/27 06:47:10;;;;;;;9.43;5.57;;;486.40;2380.80;;;;;;5056593;28;20020;-71
2021/05/27 06:49:36;;;;;;;10.38;5.75;;;486.60;2380.80;;;;;;5055597;28;20048;-67
2021/05/27 06:52:02;;;;;;;12.10;6.03;;;486.70;2380.80;;;;;;5055296;28;20099;-70
2021/05/27 06:54:28;;;;;;;8.00;5.15;;;486.90;2380.80;;;;;;5042457;28;20076;-75
2021/05/27 06:56:54;;;;;;;9.07;5.35;;;487.10;2380.80;;;;;;5037541;28;20053;-72
2021/05/27 06:59:20;;;;;;;10.23;5.47;;;487.30;2380.80;;;;;;5042442;28;20026;-74
2021/05/27 07:01:46;;;;;;;12.55;5.97;;;487.30;2380.80;;;;;;5056097;28;20025;-73
2021/05/27 07:04:11;;;;;;;11.13;6.05;;;512.10;2380.80;;;;;;5068591;28;20024;-68
2021/05/27 07:06:37;;;;;;;10.30;5.80;;;512.20;2380.80;;;;;;5074419;28;20078;-69
2021/05/27 07:09:04;;;;;;;9.70;5.72;;;512.10;2380.80;;;;;;5060405;28;20057;-69
2021/05/27 07:11:29;;;;;;;9.73;6.10;;;512.40;2380.80;;;;;;5067792;28;20454;-69
2021/05/27 07:13:55;;;;;;;8.63;5.40;;;512.60;2380.80;;;;;;5056412;28;20021;-70
2021/05/27 07:16:21;;;;;;;11.48;6.30;;;512.90;2380.80;;;;;;5062561;28;20086;-72
2021/05/27 07:18:46;;;;;;;9.02;6.10;;;512.90;2380.80;;;;;;5065189;28;20012;-69
2021/05/27 07:21:12;;;;;;;10.95;5.90;;;538.00;2406.40;;;;;;5072344;28;20029;-73
2021/05/27 07:23:38;;;;;;;10.60;5.63;;;538.50;2406.40;;;;;;5057221;28;20086;-73
2021/05/27 07:26:05;;;;;;;12.70;6.53;;;563.30;2432.00;;;;;;5040299;28;20029;-77
2021/05/27 07:28:31;;;;;;;10.20;5.68;;;563.50;2432.00;;;;;;5040289;28;20080;-74
2021/05/27 07:30:57;;;;;;;9.63;5.40;;;588.90;2432.00;;;;;;5052640;28;20105;-76
2021/05/27 07:33:23;;;;;;;10.90;5.40;;;589.40;2432.00;;;;;;5055776;28;20549;-76
2021/05/27 07:35:48;;;;;;;7.57;5.20;;;614.40;2432.00;;;;;;5056670;28;20041;-76
2021/05/27 07:38:14;;;;;;;7.82;4.82;;;614.60;2432.00;;;;;;5055240;28;20053;-73
2021/05/27 07:40:41;;;;;;;9.32;5.20;;;614.90;2432.00;;;;;;5055214;28;20044;-73
2021/05/27 07:43:07;;;;;;;8.45;4.85;;;615.10;2432.00;;;;;;5057474;28;20098;-73
2021/05/27 07:45:32;;;;;;;7.90;4.90;;;615.20;2432.00;;;;;;5058826;28;20475;-76
2021/05/27 07:47:58;;;;;;;8.35;4.78;;;615.20;2406.40;;;;;;5059367;28;20386;-76
2021/05/27 07:50:24;;;;;;;8.63;4.72;;;640.10;2380.80;;;;;;5060338;28;20029;-81
2021/05/27 07:52:52;;;;;;;7.90;4.65;;;640.40;2304.00;;;;;;5056723;28;20089;-74
2021/05/27 07:55:18;;;;;;;9.45;4.85;;;640.60;2252.80;;;;;;5086772;22;20052;-72
2021/05/27 07:57:45;;;;;;;9.77;4.70;;;640.50;2227.20;;;;;;5090991;28;20029;-75
2021/05/27 08:00:11;;;;;;;6.50;4.22;;;640.40;2227.20;;;;;;5090105;28;20020;-77
2021/05/27 08:02:37;;;;;;;7.43;4.38;;;640.00;2227.20;;;;;;5087790;28;20062;-73
2021/05/27 08:05:04;;;;;;;6.07;4.20;;;640.10;2201.60;;;;;;5084635;28;20482;-71
2021/05/27 08:07:29;;;;;;;7.72;4.25;;;640.60;2176.00;;;;;;5074403;28;20059;-79
2021/05/27 08:09:55;;;;;;;8.95;4.32;;;640.70;2150.40;;;;;;5073923;28;20017;-71
2021/05/27 08:12:21;;;;;;;7.22;4.00;;;665.70;2150.40;;;;;;5073629;28;20350;-74
2021/05/27 08:14:46;;;;;;;9.00;4.30;;;665.70;2124.80;;;;;;5083028;28;20092;-71
2021/05/27 08:17:12;;;;;;;7.07;3.85;;;665.60;2099.20;;;;;;5085872;28;20020;-75
2021/05/27 08:19:38;;;;;;;7.00;4.03;;;665.90;2099.20;;;;;;5087833;28;20134;-77
2021/05/27 08:22:04;;;;;;;8.20;4.55;;;665.90;2099.20;;;;;;5091078;28;20018;-66
2021/05/27 08:24:31;;;;;;;8.00;4.22;;;666.40;2048.00;;;;;;5086447;28;20228;-66
2021/05/27 08:26:57;;;;;;;5.95;3.83;;;691.70;1996.80;;;;;;5070955;28;20052;-66
2021/05/27 08:29:23;;;;;;;6.75;3.72;;;716.90;1971.20;;;;;;5066551;28;20025;-68
2021/05/27 08:31:50;;;;;;;7.38;3.90;;;717.50;1945.60;;;;;;5068867;28;20020;-68
2021/05/27 08:34:16;;;;;;;6.22;4.05;;;742.60;1920.00;;;;;;5072656;28;20478;-67
2021/05/27 08:36:42;;;;;;;6.65;4.13;;;742.40;1868.80;;;;;;5073354;28;20020;-68
2021/05/27 08:39:09;;;;;;;7.05;3.95;;;742.60;1894.40;;;;;;5073264;28;20040;-68
2021/05/27 08:41:35;;;;;;;7.20;4.20;;;743.10;1843.20;;;;;;5072760;28;20052;-67
2021/05/27 08:44:05;;;;;;;6.55;4.10;;;742.40;1843.20;;;;;;5072190;28;20850;-67
2021/05/27 08:46:31;;;;;;;6.70;3.90;;;717.10;1868.80;;;;;;5073034;28;20107;-73
2021/05/27 08:49:00;;;;;;;7.40;4.00;;;717.10;1868.80;;;;;;5073100;28;20035;-71
2021/05/27 08:51:33;;;;;;;7.30;3.75;;;691.90;1868.80;;;;;;5072022;28;20099;-74
2021/05/27 08:53:59;;;;;;;6.03;3.60;;;691.80;1894.40;;;;;;5072559;28;20099;-67
2021/05/27 08:56:24;;;;;;;8.30;3.53;;;691.60;1920.00;;;;;;5070467;28;20131;-71
2021/05/27 08:58:52;;;;;;;6.13;3.50;;;691.60;1920.00;;;;;;5054938;28;20029;-71
2021/05/27 09:01:22;;;;;;;6.05;3.40;;;691.60;1920.00;;;;;;5053192;28;20024;-71
2021/05/27 09:03:48;;;;;;;5.68;3.47;;;691.50;1894.40;;;;;;5056621;28;20105;-71
2021/05/27 09:06:14;;;;;;;9.68;3.63;;;691.30;1945.60;;;;;;5069144;28;20447;-68
2021/05/27 09:08:41;;;;;;;6.85;3.20;;;666.50;1920.00;;;;;;5058662;28;20056;-71
2021/05/27 09:11:20;;;;;;;6.07;3.35;;;666.30;1945.60;;;;;;5064955;28;20036;-74
2021/05/27 09:13:59;;;;;;;6.85;3.35;;;666.10;1920.00;;;;;;5060906;28;20028;-72
2021/05/27 09:16:26;;;;;;;5.22;3.35;;;666.30;1945.60;;;;;;5067424;28;20016;-74
2021/05/27 09:18:52;;;;;;;6.15;3.33;;;666.50;1920.00;;;;;;5070276;28;20064;-74
2021/05/27 09:21:40;;;;;;;7.25;3.25;;;691.20;1920.00;;;;;;5052808;28;20021;-75
2021/05/27 09:24:07;;;;;;;5.03;2.55;;;666.50;1920.00;;;;;;5067926;28;20056;-69
2021/05/27 09:26:48;;;;;;;6.15;2.67;;;666.20;1945.60;;;;;;5070478;28;20036;-68
2021/05/27 09:29:13;;;;;;;5.10;2.80;;;665.70;1945.60;;;;;;5063698;28;20165;-69
2021/05/27 09:31:57;;;;;;;7.32;2.90;;;665.60;1971.20;;;;;;5063911;28;20520;-68
2021/05/27 09:34:48;;;;;;;4.63;2.70;;;640.90;1945.60;;;;;;5061960;28;20021;-70
2021/05/27 09:37:22;;;;;;;5.40;2.40;;;665.90;1920.00;;;;;;5071596;28;20028;-72
2021/05/27 09:39:51;;;;;;;4.28;2.50;;;666.20;1920.00;;;;;;5071661;28;20021;-68
2021/05/27 09:42:17;;;;;;;6.05;2.65;;;666.20;1920.00;;;;;;5071398;28;20016;-72
2021/05/27 09:44:43;;;;;;;7.32;2.40;;;666.40;1920.00;;;;;;5071076;28;20391;-67
2021/05/27 09:47:09;;;;;;;4.13;2.33;;;666.50;1868.80;;;;;;5066604;28;20024;-70
2021/05/27 09:49:35;;;;;;;4.10;2.42;;;691.60;1868.80;;;;;;5070772;28;20032;-71
2021/05/27 09:52:21;;;;;;;5.65;2.50;;;691.80;1817.60;;;;;;5071048;28;20020;-67
2021/05/27 09:54:54;;;;;;;4.68;2.40;;;691.90;1817.60;;;;;;5069374;22;20045;-67
2021/05/27 09:57:24;;;;;;;6.10;2.53;;;691.90;1817.60;;;;;;5055500;28;20045;-71
2021/05/27 09:59:51;;;;;;;5.80;2.60;;;716.80;1817.60;;;;;;5056460;28;20070;-69
2021/05/27 10:02:21;;;;;;;6.13;2.60;;;716.90;1817.60;;;;;;5054474;28;20029;-68
2021/05/27 10:04:55;;;;;;;5.07;2.47;;;716.90;1817.60;;;;;;5055646;28;20532;-68
2021/05/27 10:07:35;;;;;;;5.88;3.15;;;717.00;1792.00;;;;;;5053481;28;20444;-68
2021/05/27 10:10:01;;;;;;;7.20;2.50;;;717.10;1817.60;;;;;;5052731;28;20502;-68
2021/05/27 10:12:27;;;;;;;7.30;2.80;;;717.00;1817.60;;;;;;5055775;28;20021;-68
2021/05/27 10:14:55;;;;;;;8.40;3.20;;;716.80;1843.20;;;;;;5055721;28;20471;-66
2021/05/27 10:17:21;;;;;;;4.30;2.95;;;716.90;1817.60;;;;;;5058336;28;20024;-68
2021/05/27 10:19:49;;;;;;;4.55;2.70;;;716.80;1843.20;;;;;;5057250;28;20017;-67
2021/05/27 10:22:15;;;;;;;6.32;2.80;;;716.80;1817.60;;;;;;5059555;28;20021;-68
2021/05/27 10:24:42;;;;;;;6.55;2.90;;;716.90;1817.60;;;;;;5058853;28;20709;-68
2021/05/27 10:27:07;;;;;;;5.32;3.38;;;717.10;1817.60;;;;;;5060243;28;20096;-69
2021/05/27 10:29:34;;;;;;;4.82;2.88;;;717.40;1817.60;;;;;;5057917;28;20178;-68
2021/05/27 10:32:01;;;;;;;4.88;2.80;;;717.20;1792.00;;;;;;5058374;28;20017;-70
2021/05/27 10:34:50;;;;;;;5.80;3.10;;;717.70;1792.00;;;;;;5057228;28;20088;-67
2021/05/27 10:37:33;;;;;;;5.90;2.83;;;717.40;1792.00;;;;;;5056975;28;20484;-67
2021/05/27 10:40:00;;;;;;;6.18;3.00;;;717.50;1792.00;;;;;;5061499;28;20021;-69
2021/05/27 10:42:59;;;;;;;5.13;3.05;;;742.40;1792.00;;;;;;5060701;28;20016;-67
2021/05/27 10:45:32;;;;;;;7.97;3.20;;;717.70;1792.00;;;;;;5055194;28;20515;-70
2021/05/27 10:48:13;;;;;;;5.07;2.80;;;742.40;1817.60;;;;;;5057007;28;20052;-69
2021/05/27 10:53:40;;;;;;;4.80;3.10;;;742.70;1792.00;;;;;;5072865;28;20016;-68
2021/05/27 10:56:09;;;;;;;6.03;3.63;;;742.90;1766.40;;;;;;5057742;28;20044;-68
2021/05/27 10:58:53;;;;;;;5.53;3.53;;;743.00;1766.40;;;;;;5056819;28;20115;-68
2021/05/27 11:01:19;;;;;;;5.15;3.20;;;768.20;1740.80;;;;;;5072689;28;20024;-68
2021/05/27 11:03:53;;;;;;;5.28;3.53;;;768.40;1740.80;;;;;;5070098;28;20054;-71
2021/05/27 11:06:20;;;;;;;7.18;3.85;;;768.60;1715.20;;;;;;5067412;28;20209;-68
2021/05/27 11:08:47;;;;;;;7.40;3.35;;;768.60;1715.20;;;;;;5069592;28;20052;-69
2021/05/27 11:12:09;;;;;;;6.05;3.75;;;768.80;1715.20;;;;;;5069365;28;20375;-68
2021/05/27 11:14:44;;;;;;;4.97;3.40;;;768.90;1689.60;;;;;;4987754;28;20033;-68
2021/05/27 11:17:12;;;;;;;7.05;3.63;;;768.90;1664.00;;;;;;4987332;28;20022;-69
2021/05/27 11:27:44;;;;;;;7.57;3.67;;;793.80;1689.60;;;;;;5073769;28;20024;-67
2021/05/27 11:30:30;;;;;;;6.97;3.65;;;794.00;1664.00;;;;;;5074563;28;20051;-68
2021/05/27 11:33:07;;;;;;;8.90;4.10;;;794.20;1664.00;;;;;;5074334;28;20471;-68
2021/05/27 11:35:39;;;;;;;6.85;3.70;;;793.90;1664.00;;;;;;5075024;28;20024;-67
2021/05/27 11:38:08;;;;;;;6.47;4.28;;;793.90;1664.00;;;;;;5074677;28;20024;-69
2021/05/27 11:40:59;;;;;;;5.93;4.03;;;794.00;1664.00;;;;;;5074463;28;20105;-68
2021/05/27 11:43:42;;;;;;;7.30;4.10;;;794.00;1664.00;;;;;;5062276;28;20390;-68
2021/05/27 11:46:22;;;;;;;6.22;3.88;;;794.30;1664.00;;;;;;5074235;28;20068;-68
2021/05/27 11:51:29;;;;;;;7.15;3.78;;;768.70;1689.60;;;;;;5073058;28;20497;-68
2021/05/27 11:53:58;;;;;;;6.40;3.80;;;768.90;1689.60;;;;;;5073710;28;20078;-68
2021/05/27 11:56:49;;;;;;;7.75;3.90;;;793.90;1664.00;;;;;;5073802;28;20097;-70
2021/05/27 11:59:26;;;;;;;6.72;4.20;;;794.00;1638.40;;;;;;5073496;28;20079;-68
2021/05/27 12:01:52;;;;;;;6.88;4.20;;;794.00;1689.60;;;;;;5074171;28;20063;-68
2021/05/27 12:04:36;;;;;;;6.25;4.00;;;794.00;1664.00;;;;;;5073659;28;20025;-68
2021/05/27 12:07:11;;;;;;;6.25;3.85;;;793.70;1638.40;;;;;;5052962;28;20028;-68
2021/05/27 12:09:49;;;;;;;6.18;3.38;;;768.70;1638.40;;;;;;5068250;28;20017;-68
2021/05/27 12:12:24;;;;;;;5.30;3.88;;;768.80;1638.40;;;;;;5069892;28;21519;-67
2021/05/27 12:14:58;;;;;;;5.78;3.50;;;768.40;1664.00;;;;;;5073806;28;20087;-67
2021/05/27 12:17:31;;;;;;;6.50;3.50;;;768.40;1664.00;;;;;;5073754;28;20032;-67
2021/05/27 12:20:08;;;;;;;6.97;3.95;;;768.50;1689.60;;;;;;5073949;28;20028;-67
2021/05/27 12:22:56;;;;;;;7.80;4.28;;;768.60;1715.20;;;;;;5072601;28;20070;-67
2021/05/27 12:25:27;;;;;;;5.72;3.42;;;768.60;1689.60;;;;;;5073834;28;20103;-69
2021/05/27 12:27:58;;;;;;;6.53;4.05;;;768.40;1689.60;;;;;;5074049;28;20272;-69
2021/05/27 12:30:33;;;;;;;9.27;5.35;;;768.40;1664.00;;;;;;5074222;28;20028;-68
2021/05/27 12:33:00;;;;;;;9.02;4.28;;;768.00;1664.00;;;;;;5074306;28;20236;-68
2021/05/27 12:35:31;;;;;;;6.75;4.28;;;768.00;1689.60;;;;;;5069801;28;20487;-70
2021/05/27 12:37:59;;;;;;;6.68;4.05;;;743.20;1740.80;;;;;;5060194;28;20025;-69
2021/05/27 12:40:40;;;;;;;10.45;5.20;;;743.30;1740.80;;;;;;5068028;28;20033;-69
2021/05/27 12:43:34;;;;;;;8.80;5.20;;;743.30;1740.80;;;;;;5063674;28;20037;-68
2021/05/27 12:46:01;;;;;;;7.95;4.95;;;743.10;1740.80;;;;;;5062804;28;20037;-69
2021/05/27 12:48:32;;;;;;;7.50;4.10;;;743.10;1740.80;;;;;;5064385;28;20429;-69
2021/05/27 12:51:03;;;;;;;8.40;4.78;;;743.20;1740.80;;;;;;5065525;28;20048;-69